createdAt,value
2023-01-05T09:15:39.438Z,99.90
2023-01-05T09:20:39.390Z,99.90
2023-01-05T09:25:33.835Z,99.90
2023-01-05T09:30:27.529Z,99.90
2023-01-05T09:35:23.303Z,99.90
2023-01-05T09:40:16.948Z,99.90
2023-01-05T09:45:15.361Z,99.90
2023-01-05T09:50:18.474Z,99.90
2023-01-05T09:55:18.046Z,99.90
2023-01-05T10:00:18.672Z,99.90
2023-01-05T10:05:15.395Z,99.90
2023-01-05T10:10:23.454Z,99.90
2023-01-05T10:15:22.989Z,99.90
2023-01-05T10:20:19.402Z,99.90
2023-01-05T10:25:21.522Z,99.90
2023-01-05T10:30:23.569Z,99.90
2023-01-05T10:41:02.002Z,99.90
2023-01-05T10:46:30.694Z,99.90
2023-01-05T10:51:11.182Z,99.90
2023-01-05T10:56:08.508Z,96.70
2023-01-05T11:01:05.212Z,96.00
2023-01-05T11:05:59.404Z,93.60
2023-01-05T11:10:57.314Z,92.10
2023-01-05T11:15:56.210Z,90.30
2023-01-05T11:21:15.769Z,88.60
2023-01-05T11:26:30.035Z,87.00
2023-01-05T11:31:27.348Z,85.40
2023-01-05T11:36:21.587Z,86.30
2023-01-05T11:41:15.789Z,85.10
2023-01-05T11:46:09.608Z,83.50
2023-01-05T11:51:05.123Z,80.20
2023-01-05T11:56:03.697Z,77.40
2023-01-05T12:01:34.054Z,76.40
2023-01-05T12:06:44.880Z,75.60
2023-01-05T12:11:45.529Z,75.50
2023-01-05T12:16:47.509Z,77.50
2023-01-05T12:21:56.339Z,78.30
2023-01-05T12:27:06.325Z,77.60
2023-01-05T12:37:48.498Z,78.70
2023-01-05T12:42:54.746Z,77.90
2023-01-05T12:48:00.754Z,76.70
2023-01-05T12:53:01.209Z,77.50
2023-01-05T12:58:01.596Z,77.60
2023-01-05T13:02:59.490Z,77.60
2023-01-05T13:07:58.549Z,76.50
2023-01-05T13:12:58.129Z,76.90
2023-01-05T13:17:55.225Z,76.80
2023-01-05T13:22:52.704Z,74.80
2023-01-05T13:27:47.746Z,75.70
2023-01-05T13:32:56.924Z,75.40
2023-01-05T13:38:24.045Z,75.00
2023-01-05T13:43:49.704Z,75.70
2023-01-05T13:49:04.535Z,75.70
2023-01-05T13:54:04.056Z,75.90
2023-01-05T13:59:03.924Z,76.30
2023-01-05T14:03:58.859Z,76.40
2023-01-05T14:08:58.522Z,76.70
2023-01-05T14:13:56.238Z,77.70
2023-01-05T14:19:03.507Z,78.00
2023-01-05T14:24:00.292Z,78.10
2023-01-05T14:28:55.844Z,78.40
2023-01-05T14:33:52.288Z,79.30
2023-01-05T14:38:51.044Z,79.20
2023-01-05T14:43:45.479Z,77.20
2023-01-05T14:48:42.952Z,77.30
2023-01-05T14:53:48.281Z,80.90
2023-01-05T14:59:23.574Z,85.50
2023-01-05T15:04:22.735Z,85.00
2023-01-05T15:14:35.417Z,88.60
